sensor_id;sensor_type;location;lat;lon;timestamp;P1;durP1;ratioP1;P2;durP2;ratioP2
22256;SDS011;11297;42.686;23.374;2022-10-22T00:01:53;26.60;;;19.03;;
22256;SDS011;11297;42.686;23.374;2022-10-22T00:04:18;27.00;;;18.80;;
22256;SDS011;11297;42.686;23.374;2022-10-22T00:06:44;26.60;;;19.20;;
22256;SDS011;11297;42.686;23.374;2022-10-22T00:09:12;25.40;;;19.63;;
22256;SDS011;11297;42.686;23.374;2022-10-22T00:11:38;29.77;;;19.73;;
22256;SDS011;11297;42.686;23.374;2022-10-22T00:14:04;23.97;;;18.43;;
22256;SDS011;11297;42.686;23.374;2022-10-22T00:16:29;27.37;;;20.57;;
22256;SDS011;11297;42.686;23.374;2022-10-22T00:18:55;26.10;;;18.87;;
22256;SDS011;11297;42.686;23.374;2022-10-22T00:21:20;26.10;;;19.17;;
22256;SDS011;11297;42.686;23.374;2022-10-22T00:23:45;22.47;;;18.20;;
22256;SDS011;11297;42.686;23.374;2022-10-22T00:26:11;22.80;;;17.77;;
22256;SDS011;11297;42.686;23.374;2022-10-22T00:28:36;24.43;;;19.53;;
22256;SDS011;11297;42.686;23.374;2022-10-22T00:31:02;28.73;;;20.00;;
22256;SDS011;11297;42.686;23.374;2022-10-22T00:33:28;24.67;;;19.63;;
22256;SDS011;11297;42.686;23.374;2022-10-22T00:35:54;28.10;;;18.93;;
22256;SDS011;11297;42.686;23.374;2022-10-22T00:38:19;24.50;;;19.47;;
22256;SDS011;11297;42.686;23.374;2022-10-22T00:40:45;27.23;;;20.43;;
22256;SDS011;11297;42.686;23.374;2022-10-22T00:43:11;25.20;;;18.27;;
22256;SDS011;11297;42.686;23.374;2022-10-22T00:45:39;24.27;;;19.00;;
22256;SDS011;11297;42.686;23.374;2022-10-22T00:48:12;27.57;;;19.43;;
22256;SDS011;11297;42.686;23.374;2022-10-22T00:53:11;29.30;;;20.87;;
22256;SDS011;11297;42.686;23.374;2022-10-22T00:55:39;26.07;;;20.63;;
22256;SDS011;11297;42.686;23.374;2022-10-22T00:58:07;25.60;;;20.63;;
22256;SDS011;11297;42.686;23.374;2022-10-22T01:00:34;27.87;;;20.30;;
22256;SDS011;11297;42.686;23.374;2022-10-22T01:02:59;27.43;;;21.27;;
22256;SDS011;11297;42.686;23.374;2022-10-22T01:05:26;30.60;;;19.70;;
22256;SDS011;11297;42.686;23.374;2022-10-22T01:07:53;28.00;;;20.10;;
22256;SDS011;11297;42.686;23.374;2022-10-22T01:13:35;25.33;;;19.90;;
22256;SDS011;11297;42.686;23.374;2022-10-22T01:16:18;27.83;;;19.53;;
22256;SDS011;11297;42.686;23.374;2022-10-22T01:21:57;31.10;;;20.97;;
22256;SDS011;11297;42.686;23.374;2022-10-22T01:24:40;27.20;;;20.33;;
22256;SDS011;11297;42.686;23.374;2022-10-22T01:30:20;26.63;;;20.10;;
22256;SDS011;11297;42.686;23.374;2022-10-22T01:32:50;32.73;;;20.73;;
22256;SDS011;11297;42.686;23.374;2022-10-22T01:35:38;31.60;;;21.97;;
22256;SDS011;11297;42.686;23.374;2022-10-22T01:38:08;27.83;;;21.07;;
22256;SDS011;11297;42.686;23.374;2022-10-22T01:40:38;30.33;;;22.00;;
22256;SDS011;11297;42.686;23.374;2022-10-22T01:43:06;28.83;;;23.07;;
22256;SDS011;11297;42.686;23.374;2022-10-22T01:45:41;38.20;;;30.27;;
22256;SDS011;11297;42.686;23.374;2022-10-22T01:53:17;34.17;;;24.57;;
22256;SDS011;11297;42.686;23.374;2022-10-22T02:07:24;29.70;;;22.80;;
22256;SDS011;11297;42.686;23.374;2022-10-22T02:09:55;31.90;;;24.60;;
22256;SDS011;11297;42.686;23.374;2022-10-22T02:12:23;35.97;;;24.00;;
22256;SDS011;11297;42.686;23.374;2022-10-22T02:14:52;29.67;;;23.60;;
22256;SDS011;11297;42.686;23.374;2022-10-22T02:17:20;30.40;;;22.23;;
22256;SDS011;11297;42.686;23.374;2022-10-22T02:19:52;29.60;;;23.13;;
22256;SDS011;11297;42.686;23.374;2022-10-22T02:22:20;33.70;;;24.00;;
22256;SDS011;11297;42.686;23.374;2022-10-22T02:24:46;31.77;;;22.70;;
22256;SDS011;11297;42.686;23.374;2022-10-22T02:32:30;33.87;;;22.70;;
22256;SDS011;11297;42.686;23.374;2022-10-22T02:35:02;28.30;;;23.10;;
22256;SDS011;11297;42.686;23.374;2022-10-22T02:37:31;34.53;;;23.60;;
22256;SDS011;11297;42.686;23.374;2022-10-22T02:39:56;33.73;;;22.77;;
22256;SDS011;11297;42.686;23.374;2022-10-22T02:42:23;29.83;;;22.80;;
22256;SDS011;11297;42.686;23.374;2022-10-22T02:44:50;33.07;;;23.40;;
22256;SDS011;11297;42.686;23.374;2022-10-22T02:47:16;28.90;;;23.03;;
22256;SDS011;11297;42.686;23.374;2022-10-22T02:49:41;31.47;;;24.63;;
22256;SDS011;11297;42.686;23.374;2022-10-22T02:52:06;29.73;;;23.87;;
22256;SDS011;11297;42.686;23.374;2022-10-22T02:54:32;29.67;;;23.07;;
22256;SDS011;11297;42.686;23.374;2022-10-22T02:56:57;30.93;;;23.03;;
22256;SDS011;11297;42.686;23.374;2022-10-22T02:59:23;28.23;;;21.53;;
22256;SDS011;11297;42.686;23.374;2022-10-22T03:01:48;31.50;;;22.43;;
22256;SDS011;11297;42.686;23.374;2022-10-22T03:04:13;28.63;;;20.97;;
22256;SDS011;11297;42.686;23.374;2022-10-22T03:06:39;30.30;;;22.30;;
22256;SDS011;11297;42.686;23.374;2022-10-22T03:09:07;28.33;;;21.67;;
22256;SDS011;11297;42.686;23.374;2022-10-22T03:11:33;28.40;;;21.77;;
22256;SDS011;11297;42.686;23.374;2022-10-22T03:13:58;30.30;;;20.10;;
22256;SDS011;11297;42.686;23.374;2022-10-22T03:16:24;26.07;;;21.33;;
22256;SDS011;11297;42.686;23.374;2022-10-22T03:18:49;32.43;;;22.03;;
22256;SDS011;11297;42.686;23.374;2022-10-22T03:23:56;29.50;;;21.87;;
22256;SDS011;11297;42.686;23.374;2022-10-22T03:26:23;36.80;;;23.27;;
22256;SDS011;11297;42.686;23.374;2022-10-22T03:28:49;29.97;;;21.17;;
22256;SDS011;11297;42.686;23.374;2022-10-22T03:31:15;26.23;;;18.13;;
22256;SDS011;11297;42.686;23.374;2022-10-22T03:33:40;24.87;;;19.50;;
22256;SDS011;11297;42.686;23.374;2022-10-22T03:36:06;23.80;;;17.63;;
22256;SDS011;11297;42.686;23.374;2022-10-22T03:38:33;24.40;;;18.80;;
22256;SDS011;11297;42.686;23.374;2022-10-22T03:41:01;20.90;;;16.43;;
22256;SDS011;11297;42.686;23.374;2022-10-22T03:43:26;30.33;;;19.47;;
22256;SDS011;11297;42.686;23.374;2022-10-22T03:45:52;25.27;;;20.50;;
22256;SDS011;11297;42.686;23.374;2022-10-22T03:48:17;30.07;;;22.60;;
22256;SDS011;11297;42.686;23.374;2022-10-22T03:50:43;24.73;;;19.67;;
22256;SDS011;11297;42.686;23.374;2022-10-22T03:53:08;30.40;;;23.57;;
22256;SDS011;11297;42.686;23.374;2022-10-22T03:55:34;32.93;;;23.97;;
22256;SDS011;11297;42.686;23.374;2022-10-22T03:58:02;37.50;;;26.60;;
22256;SDS011;11297;42.686;23.374;2022-10-22T04:00:28;36.13;;;28.20;;
22256;SDS011;11297;42.686;23.374;2022-10-22T04:02:53;38.77;;;28.13;;
22256;SDS011;11297;42.686;23.374;2022-10-22T04:05:18;37.93;;;28.63;;
22256;SDS011;11297;42.686;23.374;2022-10-22T04:07:44;26.70;;;19.67;;
22256;SDS011;11297;42.686;23.374;2022-10-22T04:10:09;34.37;;;25.97;;
22256;SDS011;11297;42.686;23.374;2022-10-22T04:12:35;29.43;;;23.50;;
22256;SDS011;11297;42.686;23.374;2022-10-22T04:15:00;25.27;;;20.70;;
22256;SDS011;11297;42.686;23.374;2022-10-22T04:17:25;20.63;;;17.30;;
22256;SDS011;11297;42.686;23.374;2022-10-22T04:19:56;30.00;;;21.47;;
22256;SDS011;11297;42.686;23.374;2022-10-22T04:22:22;26.70;;;18.30;;
22256;SDS011;11297;42.686;23.374;2022-10-22T04:24:47;26.20;;;21.27;;
22256;SDS011;11297;42.686;23.374;2022-10-22T04:27:12;20.57;;;16.63;;
22256;SDS011;11297;42.686;23.374;2022-10-22T04:29:38;24.30;;;15.53;;
22256;SDS011;11297;42.686;23.374;2022-10-22T04:32:03;31.23;;;20.53;;
22256;SDS011;11297;42.686;23.374;2022-10-22T04:34:29;23.37;;;15.67;;
22256;SDS011;11297;42.686;23.374;2022-10-22T04:36:55;26.90;;;19.80;;
22256;SDS011;11297;42.686;23.374;2022-10-22T04:39:20;26.87;;;18.70;;
22256;SDS011;11297;42.686;23.374;2022-10-22T04:41:46;26.87;;;20.67;;
22256;SDS011;11297;42.686;23.374;2022-10-22T04:44:11;35.97;;;24.90;;
22256;SDS011;11297;42.686;23.374;2022-10-22T04:46:37;30.10;;;24.00;;
22256;SDS011;11297;42.686;23.374;2022-10-22T04:49:02;27.27;;;21.20;;
22256;SDS011;11297;42.686;23.374;2022-10-22T04:51:28;29.67;;;20.83;;
22256;SDS011;11297;42.686;23.374;2022-10-22T04:53:54;30.70;;;22.90;;
22256;SDS011;11297;42.686;23.374;2022-10-22T04:56:21;26.17;;;21.70;;
22256;SDS011;11297;42.686;23.374;2022-10-22T04:58:50;28.40;;;22.57;;
22256;SDS011;11297;42.686;23.374;2022-10-22T05:01:27;29.00;;;22.37;;
22256;SDS011;11297;42.686;23.374;2022-10-22T05:03:55;32.47;;;23.87;;
22256;SDS011;11297;42.686;23.374;2022-10-22T05:06:23;28.70;;;22.17;;
22256;SDS011;11297;42.686;23.374;2022-10-22T05:08:53;32.53;;;22.70;;
22256;SDS011;11297;42.686;23.374;2022-10-22T05:11:21;32.33;;;23.80;;
22256;SDS011;11297;42.686;23.374;2022-10-22T05:13:48;30.50;;;24.60;;
22256;SDS011;11297;42.686;23.374;2022-10-22T05:16:14;35.93;;;28.93;;
22256;SDS011;11297;42.686;23.374;2022-10-22T05:18:40;39.53;;;29.23;;
22256;SDS011;11297;42.686;23.374;2022-10-22T05:21:08;35.63;;;28.87;;
22256;SDS011;11297;42.686;23.374;2022-10-22T05:23:38;36.00;;;26.30;;
22256;SDS011;11297;42.686;23.374;2022-10-22T05:26:04;33.10;;;25.87;;
22256;SDS011;11297;42.686;23.374;2022-10-22T05:28:31;34.87;;;27.80;;
22256;SDS011;11297;42.686;23.374;2022-10-22T05:30:58;44.87;;;30.27;;
22256;SDS011;11297;42.686;23.374;2022-10-22T05:33:24;34.67;;;26.70;;
22256;SDS011;11297;42.686;23.374;2022-10-22T05:35:50;32.90;;;26.07;;
22256;SDS011;11297;42.686;23.374;2022-10-22T05:38:16;34.10;;;24.47;;
22256;SDS011;11297;42.686;23.374;2022-10-22T05:40:42;32.20;;;25.60;;
22256;SDS011;11297;42.686;23.374;2022-10-22T05:43:08;30.03;;;21.93;;
22256;SDS011;11297;42.686;23.374;2022-10-22T05:45:37;29.27;;;21.80;;
22256;SDS011;11297;42.686;23.374;2022-10-22T05:48:03;26.90;;;21.33;;
22256;SDS011;11297;42.686;23.374;2022-10-22T05:50:29;33.20;;;21.13;;
22256;SDS011;11297;42.686;23.374;2022-10-22T05:52:55;29.03;;;21.93;;
22256;SDS011;11297;42.686;23.374;2022-10-22T05:55:20;30.20;;;21.73;;
22256;SDS011;11297;42.686;23.374;2022-10-22T05:57:45;36.83;;;22.53;;
22256;SDS011;11297;42.686;23.374;2022-10-22T06:00:13;27.20;;;20.50;;
22256;SDS011;11297;42.686;23.374;2022-10-22T06:02:39;30.00;;;21.93;;
22256;SDS011;11297;42.686;23.374;2022-10-22T06:05:04;30.43;;;22.70;;
22256;SDS011;11297;42.686;23.374;2022-10-22T06:07:30;36.20;;;24.03;;
22256;SDS011;11297;42.686;23.374;2022-10-22T06:09:57;42.07;;;30.47;;
22256;SDS011;11297;42.686;23.374;2022-10-22T06:12:23;43.37;;;33.13;;
22256;SDS011;11297;42.686;23.374;2022-10-22T06:14:48;36.83;;;26.77;;
22256;SDS011;11297;42.686;23.374;2022-10-22T06:17:14;32.77;;;24.67;;
22256;SDS011;11297;42.686;23.374;2022-10-22T06:19:39;32.70;;;25.63;;
22256;SDS011;11297;42.686;23.374;2022-10-22T06:22:05;38.37;;;27.30;;
22256;SDS011;11297;42.686;23.374;2022-10-22T06:24:31;40.43;;;29.87;;
22256;SDS011;11297;42.686;23.374;2022-10-22T06:26:56;45.03;;;27.50;;
22256;SDS011;11297;42.686;23.374;2022-10-22T06:29:22;51.90;;;35.73;;
22256;SDS011;11297;42.686;23.374;2022-10-22T06:31:47;43.57;;;31.70;;
22256;SDS011;11297;42.686;23.374;2022-10-22T06:34:13;46.50;;;30.03;;
22256;SDS011;11297;42.686;23.374;2022-10-22T06:36:39;32.03;;;23.00;;
22256;SDS011;11297;42.686;23.374;2022-10-22T06:39:06;26.70;;;20.97;;
22256;SDS011;11297;42.686;23.374;2022-10-22T06:41:38;38.30;;;25.83;;
22256;SDS011;11297;42.686;23.374;2022-10-22T06:44:04;32.60;;;24.17;;
22256;SDS011;11297;42.686;23.374;2022-10-22T06:46:29;28.97;;;23.17;;
22256;SDS011;11297;42.686;23.374;2022-10-22T06:48:56;31.93;;;24.83;;
22256;SDS011;11297;42.686;23.374;2022-10-22T06:51:27;38.77;;;23.20;;
22256;SDS011;11297;42.686;23.374;2022-10-22T06:53:53;30.77;;;22.17;;
22256;SDS011;11297;42.686;23.374;2022-10-22T06:56:20;37.20;;;23.73;;
22256;SDS011;11297;42.686;23.374;2022-10-22T06:58:47;34.07;;;24.87;;
22256;SDS011;11297;42.686;23.374;2022-10-22T07:01:14;40.23;;;24.27;;
22256;SDS011;11297;42.686;23.374;2022-10-22T07:03:41;33.40;;;24.37;;
22256;SDS011;11297;42.686;23.374;2022-10-22T07:06:08;32.83;;;24.83;;
22256;SDS011;11297;42.686;23.374;2022-10-22T07:08:36;30.63;;;23.10;;
22256;SDS011;11297;42.686;23.374;2022-10-22T07:11:20;27.83;;;22.50;;
22256;SDS011;11297;42.686;23.374;2022-10-22T07:13:48;28.50;;;23.70;;
22256;SDS011;11297;42.686;23.374;2022-10-22T07:16:14;35.83;;;24.23;;
22256;SDS011;11297;42.686;23.374;2022-10-22T07:18:41;23.33;;;18.43;;
22256;SDS011;11297;42.686;23.374;2022-10-22T07:21:07;31.93;;;23.13;;
22256;SDS011;11297;42.686;23.374;2022-10-22T07:23:34;27.90;;;22.57;;
22256;SDS011;11297;42.686;23.374;2022-10-22T07:26:00;26.87;;;22.03;;
22256;SDS011;11297;42.686;23.374;2022-10-22T07:28:30;26.80;;;20.43;;
22256;SDS011;11297;42.686;23.374;2022-10-22T07:30:57;27.97;;;23.53;;
22256;SDS011;11297;42.686;23.374;2022-10-22T07:33:23;33.87;;;23.60;;
22256;SDS011;11297;42.686;23.374;2022-10-22T07:35:48;27.67;;;21.13;;
22256;SDS011;11297;42.686;23.374;2022-10-22T07:38:13;30.33;;;24.37;;
22256;SDS011;11297;42.686;23.374;2022-10-22T07:40:39;32.33;;;23.63;;
22256;SDS011;11297;42.686;23.374;2022-10-22T07:43:04;31.60;;;23.83;;
22256;SDS011;11297;42.686;23.374;2022-10-22T07:45:30;26.33;;;18.93;;
22256;SDS011;11297;42.686;23.374;2022-10-22T07:47:55;31.77;;;26.17;;
22256;SDS011;11297;42.686;23.374;2022-10-22T07:50:21;37.40;;;23.93;;
22256;SDS011;11297;42.686;23.374;2022-10-22T07:52:46;32.50;;;24.77;;
22256;SDS011;11297;42.686;23.374;2022-10-22T07:55:12;29.17;;;23.23;;
22256;SDS011;11297;42.686;23.374;2022-10-22T07:57:37;27.93;;;24.00;;
22256;SDS011;11297;42.686;23.374;2022-10-22T08:00:04;33.63;;;24.13;;
22256;SDS011;11297;42.686;23.374;2022-10-22T08:02:31;27.53;;;24.63;;
22256;SDS011;11297;42.686;23.374;2022-10-22T08:04:56;28.77;;;21.53;;
22256;SDS011;11297;42.686;23.374;2022-10-22T08:07:23;29.13;;;22.83;;
22256;SDS011;11297;42.686;23.374;2022-10-22T08:09:48;28.20;;;23.53;;
22256;SDS011;11297;42.686;23.374;2022-10-22T08:12:14;32.00;;;21.93;;
22256;SDS011;11297;42.686;23.374;2022-10-22T08:14:39;26.10;;;21.87;;
22256;SDS011;11297;42.686;23.374;2022-10-22T08:17:05;31.37;;;20.73;;
22256;SDS011;11297;42.686;23.374;2022-10-22T08:19:30;29.33;;;22.30;;
22256;SDS011;11297;42.686;23.374;2022-10-22T08:21:56;28.47;;;23.60;;
22256;SDS011;11297;42.686;23.374;2022-10-22T08:24:22;24.93;;;21.13;;
22256;SDS011;11297;42.686;23.374;2022-10-22T08:26:48;29.10;;;22.47;;
22256;SDS011;11297;42.686;23.374;2022-10-22T08:29:14;28.63;;;22.60;;
22256;SDS011;11297;42.686;23.374;2022-10-22T08:31:39;25.63;;;22.37;;
22256;SDS011;11297;42.686;23.374;2022-10-22T08:34:05;36.03;;;22.33;;
22256;SDS011;11297;42.686;23.374;2022-10-22T08:36:32;29.03;;;20.63;;
22256;SDS011;11297;42.686;23.374;2022-10-22T08:38:57;22.47;;;16.93;;
22256;SDS011;11297;42.686;23.374;2022-10-22T08:41:23;29.10;;;17.53;;
22256;SDS011;11297;42.686;23.374;2022-10-22T08:49:28;24.10;;;19.00;;
22256;SDS011;11297;42.686;23.374;2022-10-22T08:51:57;23.93;;;18.07;;
22256;SDS011;11297;42.686;23.374;2022-10-22T08:54:29;24.70;;;19.70;;
22256;SDS011;11297;42.686;23.374;2022-10-22T08:59:46;26.73;;;17.37;;
22256;SDS011;11297;42.686;23.374;2022-10-22T09:05:10;20.17;;;18.07;;
22256;SDS011;11297;42.686;23.374;2022-10-22T09:07:46;20.97;;;16.80;;
22256;SDS011;11297;42.686;23.374;2022-10-22T09:10:14;19.60;;;16.10;;
22256;SDS011;11297;42.686;23.374;2022-10-22T09:12:41;17.20;;;14.07;;
22256;SDS011;11297;42.686;23.374;2022-10-22T09:15:11;22.77;;;14.93;;
22256;SDS011;11297;42.686;23.374;2022-10-22T09:17:40;17.67;;;13.00;;
22256;SDS011;11297;42.686;23.374;2022-10-22T09:20:32;15.30;;;12.30;;
22256;SDS011;11297;42.686;23.374;2022-10-22T09:23:31;13.43;;;12.00;;
22256;SDS011;11297;42.686;23.374;2022-10-22T09:26:13;17.20;;;13.10;;
22256;SDS011;11297;42.686;23.374;2022-10-22T09:28:40;14.33;;;12.47;;
22256;SDS011;11297;42.686;23.374;2022-10-22T09:31:13;16.57;;;13.77;;
22256;SDS011;11297;42.686;23.374;2022-10-22T09:33:39;16.87;;;13.43;;
22256;SDS011;11297;42.686;23.374;2022-10-22T09:36:06;20.00;;;13.47;;
22256;SDS011;11297;42.686;23.374;2022-10-22T09:38:51;18.40;;;13.10;;
22256;SDS011;11297;42.686;23.374;2022-10-22T09:41:17;14.63;;;12.67;;
22256;SDS011;11297;42.686;23.374;2022-10-22T09:43:47;18.43;;;13.77;;
22256;SDS011;11297;42.686;23.374;2022-10-22T09:46:21;15.93;;;12.73;;
22256;SDS011;11297;42.686;23.374;2022-10-22T09:48:50;18.33;;;12.97;;
22256;SDS011;11297;42.686;23.374;2022-10-22T09:52:17;13.73;;;12.33;;
22256;SDS011;11297;42.686;23.374;2022-10-22T09:54:15;15.47;;;11.77;;
22256;SDS011;11297;42.686;23.374;2022-10-22T09:56:46;14.80;;;12.47;;
22256;SDS011;11297;42.686;23.374;2022-10-22T09:59:26;15.10;;;13.17;;
22256;SDS011;11297;42.686;23.374;2022-10-22T10:01:57;16.10;;;12.77;;
22256;SDS011;11297;42.686;23.374;2022-10-22T10:04:40;17.23;;;12.97;;
22256;SDS011;11297;42.686;23.374;2022-10-22T10:07:14;14.33;;;11.83;;
22256;SDS011;11297;42.686;23.374;2022-10-22T10:09:41;17.43;;;12.63;;
22256;SDS011;11297;42.686;23.374;2022-10-22T10:15:12;13.97;;;12.50;;
22256;SDS011;11297;42.686;23.374;2022-10-22T10:26:13;17.33;;;13.20;;
22256;SDS011;11297;42.686;23.374;2022-10-22T10:29:01;14.60;;;13.10;;
22256;SDS011;11297;42.686;23.374;2022-10-22T10:39:09;15.47;;;12.47;;
22256;SDS011;11297;42.686;23.374;2022-10-22T10:49:53;11.90;;;10.70;;
22256;SDS011;11297;42.686;23.374;2022-10-22T10:55:31;13.33;;;10.70;;
22256;SDS011;11297;42.686;23.374;2022-10-22T11:01:02;15.23;;;12.67;;
22256;SDS011;11297;42.686;23.374;2022-10-22T11:06:15;22.77;;;12.80;;
22256;SDS011;11297;42.686;23.374;2022-10-22T11:08:46;15.07;;;11.40;;
22256;SDS011;11297;42.686;23.374;2022-10-22T11:14:10;17.03;;;12.43;;
22256;SDS011;11297;42.686;23.374;2022-10-22T11:16:46;16.27;;;12.23;;
22256;SDS011;11297;42.686;23.374;2022-10-22T11:19:36;18.73;;;12.03;;
22256;SDS011;11297;42.686;23.374;2022-10-22T11:22:10;19.80;;;12.70;;
22256;SDS011;11297;42.686;23.374;2022-10-22T11:24:52;19.47;;;11.43;;
22256;SDS011;11297;42.686;23.374;2022-10-22T11:27:29;16.40;;;12.13;;
22256;SDS011;11297;42.686;23.374;2022-10-22T11:30:01;15.97;;;12.47;;
22256;SDS011;11297;42.686;23.374;2022-10-22T11:32:30;16.00;;;11.67;;
22256;SDS011;11297;42.686;23.374;2022-10-22T11:34:58;17.30;;;11.30;;
22256;SDS011;11297;42.686;23.374;2022-10-22T11:37:28;16.27;;;11.80;;
22256;SDS011;11297;42.686;23.374;2022-10-22T11:40:05;17.90;;;11.90;;
22256;SDS011;11297;42.686;23.374;2022-10-22T11:42:40;18.07;;;12.27;;
22256;SDS011;11297;42.686;23.374;2022-10-22T11:47:54;18.00;;;11.33;;
22256;SDS011;11297;42.686;23.374;2022-10-22T12:19:42;17.50;;;11.37;;
22256;SDS011;11297;42.686;23.374;2022-10-22T12:24:43;15.43;;;11.68;;
22256;SDS011;11297;42.686;23.374;2022-10-22T12:27:57;17.77;;;9.87;;
22256;SDS011;11297;42.686;23.374;2022-10-22T12:30:17;16.30;;;10.67;;
22256;SDS011;11297;42.686;23.374;2022-10-22T12:32:42;14.50;;;10.23;;
22256;SDS011;11297;42.686;23.374;2022-10-22T12:35:13;12.50;;;9.43;;
22256;SDS011;11297;42.686;23.374;2022-10-22T12:37:41;17.80;;;9.60;;
22256;SDS011;11297;42.686;23.374;2022-10-22T12:40:20;18.30;;;9.60;;
22256;SDS011;11297;42.686;23.374;2022-10-22T12:45:44;14.40;;;10.60;;
22256;SDS011;11297;42.686;23.374;2022-10-22T12:48:21;14.40;;;9.40;;
22256;SDS011;11297;42.686;23.374;2022-10-22T12:50:50;14.73;;;10.03;;
22256;SDS011;11297;42.686;23.374;2022-10-22T12:55:47;20.30;;;9.97;;
22256;SDS011;11297;42.686;23.374;2022-10-22T12:58:16;12.43;;;8.27;;
22256;SDS011;11297;42.686;23.374;2022-10-22T13:00:45;16.97;;;11.63;;
22256;SDS011;11297;42.686;23.374;2022-10-22T13:03:22;12.83;;;8.97;;
22256;SDS011;11297;42.686;23.374;2022-10-22T13:05:50;14.93;;;9.50;;
22256;SDS011;11297;42.686;23.374;2022-10-22T13:08:16;17.37;;;9.73;;
22256;SDS011;11297;42.686;23.374;2022-10-22T13:10:50;15.00;;;10.17;;
22256;SDS011;11297;42.686;23.374;2022-10-22T13:13:30;12.73;;;9.23;;
22256;SDS011;11297;42.686;23.374;2022-10-22T13:15:55;12.37;;;7.80;;
22256;SDS011;11297;42.686;23.374;2022-10-22T13:18:37;14.30;;;8.83;;
22256;SDS011;11297;42.686;23.374;2022-10-22T13:21:02;10.13;;;8.53;;
22256;SDS011;11297;42.686;23.374;2022-10-22T13:23:30;13.90;;;9.07;;
22256;SDS011;11297;42.686;23.374;2022-10-22T13:26:02;12.90;;;9.17;;
22256;SDS011;11297;42.686;23.374;2022-10-22T13:28:36;17.77;;;8.80;;
22256;SDS011;11297;42.686;23.374;2022-10-22T13:31:23;14.77;;;8.77;;
22256;SDS011;11297;42.686;23.374;2022-10-22T13:33:51;12.53;;;8.53;;
22256;SDS011;11297;42.686;23.374;2022-10-22T13:36:20;15.50;;;9.93;;
22256;SDS011;11297;42.686;23.374;2022-10-22T13:38:46;14.50;;;8.90;;
22256;SDS011;11297;42.686;23.374;2022-10-22T13:41:18;11.33;;;9.53;;
22256;SDS011;11297;42.686;23.374;2022-10-22T13:43:46;16.03;;;8.20;;
22256;SDS011;11297;42.686;23.374;2022-10-22T13:46:12;14.00;;;9.57;;
22256;SDS011;11297;42.686;23.374;2022-10-22T13:48:37;10.40;;;8.70;;
22256;SDS011;11297;42.686;23.374;2022-10-22T13:51:03;14.43;;;8.50;;
22256;SDS011;11297;42.686;23.374;2022-10-22T13:53:29;12.87;;;9.00;;
22256;SDS011;11297;42.686;23.374;2022-10-22T13:55:55;11.87;;;9.03;;
22256;SDS011;11297;42.686;23.374;2022-10-22T13:58:21;10.43;;;9.00;;
22256;SDS011;11297;42.686;23.374;2022-10-22T14:00:51;11.97;;;8.67;;
22256;SDS011;11297;42.686;23.374;2022-10-22T14:03:28;14.27;;;8.90;;
22256;SDS011;11297;42.686;23.374;2022-10-22T14:05:56;15.37;;;9.73;;
22256;SDS011;11297;42.686;23.374;2022-10-22T14:08:22;14.00;;;9.13;;
22256;SDS011;11297;42.686;23.374;2022-10-22T14:10:49;12.73;;;8.90;;
22256;SDS011;11297;42.686;23.374;2022-10-22T14:13:16;13.70;;;9.30;;
22256;SDS011;11297;42.686;23.374;2022-10-22T14:15:42;13.23;;;8.23;;
22256;SDS011;11297;42.686;23.374;2022-10-22T14:18:11;11.73;;;8.13;;
22256;SDS011;11297;42.686;23.374;2022-10-22T14:20:48;9.37;;;8.17;;
22256;SDS011;11297;42.686;23.374;2022-10-22T14:23:18;18.77;;;15.50;;
22256;SDS011;11297;42.686;23.374;2022-10-22T14:25:44;11.77;;;9.57;;
22256;SDS011;11297;42.686;23.374;2022-10-22T14:28:11;15.07;;;9.37;;
22256;SDS011;11297;42.686;23.374;2022-10-22T14:30:36;14.07;;;9.40;;
22256;SDS011;11297;42.686;23.374;2022-10-22T14:33:08;13.83;;;9.93;;
22256;SDS011;11297;42.686;23.374;2022-10-22T14:35:44;15.07;;;9.83;;
22256;SDS011;11297;42.686;23.374;2022-10-22T14:38:09;14.57;;;10.00;;
22256;SDS011;11297;42.686;23.374;2022-10-22T14:40:35;21.20;;;10.30;;
22256;SDS011;11297;42.686;23.374;2022-10-22T14:43:03;16.00;;;9.83;;
22256;SDS011;11297;42.686;23.374;2022-10-22T14:45:29;16.73;;;9.27;;
22256;SDS011;11297;42.686;23.374;2022-10-22T14:47:55;21.00;;;11.20;;
22256;SDS011;11297;42.686;23.374;2022-10-22T14:50:21;15.90;;;11.10;;
22256;SDS011;11297;42.686;23.374;2022-10-22T14:52:48;13.00;;;9.07;;
22256;SDS011;11297;42.686;23.374;2022-10-22T14:55:14;39.60;;;28.90;;
22256;SDS011;11297;42.686;23.374;2022-10-22T14:57:41;12.93;;;8.77;;
22256;SDS011;11297;42.686;23.374;2022-10-22T15:00:16;15.47;;;9.93;;
22256;SDS011;11297;42.686;23.374;2022-10-22T15:02:42;22.40;;;18.03;;
22256;SDS011;11297;42.686;23.374;2022-10-22T15:05:08;15.20;;;11.80;;
22256;SDS011;11297;42.686;23.374;2022-10-22T15:07:34;20.07;;;10.47;;
22256;SDS011;11297;42.686;23.374;2022-10-22T15:10:00;18.97;;;12.17;;
22256;SDS011;11297;42.686;23.374;2022-10-22T15:12:25;22.17;;;15.10;;
22256;SDS011;11297;42.686;23.374;2022-10-22T15:14:51;21.97;;;11.37;;
22256;SDS011;11297;42.686;23.374;2022-10-22T15:17:16;13.30;;;9.93;;
22256;SDS011;11297;42.686;23.374;2022-10-22T15:19:43;17.00;;;12.83;;
22256;SDS011;11297;42.686;23.374;2022-10-22T15:22:12;16.10;;;10.83;;
22256;SDS011;11297;42.686;23.374;2022-10-22T15:24:38;19.60;;;10.73;;
22256;SDS011;11297;42.686;23.374;2022-10-22T15:27:04;21.27;;;10.60;;
22256;SDS011;11297;42.686;23.374;2022-10-22T15:29:29;13.60;;;10.00;;
22256;SDS011;11297;42.686;23.374;2022-10-22T15:31:56;13.73;;;10.00;;
22256;SDS011;11297;42.686;23.374;2022-10-22T15:34:25;17.07;;;12.63;;
22256;SDS011;11297;42.686;23.374;2022-10-22T15:36:55;16.87;;;11.17;;
22256;SDS011;11297;42.686;23.374;2022-10-22T15:39:22;14.83;;;9.97;;
22256;SDS011;11297;42.686;23.374;2022-10-22T15:41:48;12.83;;;9.63;;
22256;SDS011;11297;42.686;23.374;2022-10-22T15:44:16;18.37;;;11.73;;
22256;SDS011;11297;42.686;23.374;2022-10-22T15:46:43;19.47;;;10.90;;
22256;SDS011;11297;42.686;23.374;2022-10-22T15:49:08;17.93;;;10.90;;
22256;SDS011;11297;42.686;23.374;2022-10-22T15:51:34;17.23;;;10.53;;
22256;SDS011;11297;42.686;23.374;2022-10-22T15:54:00;15.47;;;10.80;;
22256;SDS011;11297;42.686;23.374;2022-10-22T15:56:26;19.63;;;12.27;;
22256;SDS011;11297;42.686;23.374;2022-10-22T15:58:54;16.80;;;11.87;;
22256;SDS011;11297;42.686;23.374;2022-10-22T16:01:21;17.17;;;11.77;;
22256;SDS011;11297;42.686;23.374;2022-10-22T16:03:48;20.23;;;14.47;;
22256;SDS011;11297;42.686;23.374;2022-10-22T16:06:16;18.47;;;12.50;;
22256;SDS011;11297;42.686;23.374;2022-10-22T16:08:42;16.67;;;11.87;;
22256;SDS011;11297;42.686;23.374;2022-10-22T16:11:07;16.90;;;12.03;;
22256;SDS011;11297;42.686;23.374;2022-10-22T16:13:33;17.80;;;12.33;;
22256;SDS011;11297;42.686;23.374;2022-10-22T16:16:03;20.23;;;13.10;;
22256;SDS011;11297;42.686;23.374;2022-10-22T16:18:31;14.80;;;12.57;;
22256;SDS011;11297;42.686;23.374;2022-10-22T16:20:56;26.57;;;16.20;;
22256;SDS011;11297;42.686;23.374;2022-10-22T16:23:22;27.13;;;15.53;;
22256;SDS011;11297;42.686;23.374;2022-10-22T16:25:48;20.40;;;14.23;;